createdAt,value
2023-01-18T00:01:39.246Z,30.01
2023-01-18T00:04:10.731Z,30.74
2023-01-18T00:06:41.293Z,30.65
2023-01-18T00:09:13.813Z,29.55
2023-01-18T00:11:44.921Z,30.39
2023-01-18T00:14:15.873Z,30.01
2023-01-18T00:16:46.347Z,30.13
2023-01-18T00:19:17.565Z,30.28
2023-01-18T00:21:47.907Z,29.77
2023-01-18T00:24:18.730Z,28.82
2023-01-18T00:26:49.583Z,28.48
2023-01-18T00:29:20.749Z,28.73
2023-01-18T00:31:51.808Z,29.56
2023-01-18T00:34:22.848Z,29.67
2023-01-18T00:36:54.025Z,29.35
2023-01-18T00:39:25.876Z,30.32
2023-01-18T00:42:15.635Z,31.08
2023-01-18T00:44:46.557Z,30.25
2023-01-18T00:47:17.058Z,31.06
2023-01-18T00:49:48.340Z,30.61
2023-01-18T00:52:18.649Z,29.68
2023-01-18T00:54:49.513Z,28.97
2023-01-18T00:57:20.455Z,28.52
2023-01-18T00:59:51.629Z,30.42
2023-01-18T01:02:23.017Z,30.75
2023-01-18T01:05:12.210Z,30.18
2023-01-18T01:07:43.634Z,29.69
2023-01-18T01:10:14.779Z,28.81
2023-01-18T01:13:06.580Z,28.31
2023-01-18T01:15:57.472Z,27.90
2023-01-18T01:18:46.543Z,27.22
2023-01-18T01:21:35.648Z,29.11
2023-01-18T01:24:25.253Z,28.95
2023-01-18T01:26:56.073Z,29.90
2023-01-18T01:29:26.704Z,30.00
2023-01-18T01:31:57.866Z,30.44
2023-01-18T01:34:28.604Z,29.15
2023-01-18T01:36:59.538Z,28.21
2023-01-18T01:39:31.965Z,28.40
2023-01-18T01:42:03.318Z,29.58
2023-01-18T01:44:35.637Z,30.06
2023-01-18T01:47:37.489Z,29.79
2023-01-18T01:50:33.898Z,30.91
2023-01-18T01:53:06.022Z,31.50
2023-01-18T01:55:39.013Z,31.67
2023-01-18T01:58:17.326Z,31.66
2023-01-18T02:00:48.567Z,30.88
2023-01-18T02:03:20.612Z,30.03
2023-01-18T02:05:55.069Z,29.68
2023-01-18T02:08:26.730Z,30.61
2023-01-18T02:10:57.874Z,31.27
2023-01-18T02:13:29.296Z,30.75
2023-01-18T02:16:12.931Z,29.74
2023-01-18T02:19:14.980Z,29.26
2023-01-18T02:22:10.390Z,30.01
2023-01-18T02:25:04.117Z,30.13
2023-01-18T02:27:47.899Z,31.04
2023-01-18T02:30:30.417Z,30.92
2023-01-18T02:33:16.791Z,32.04
2023-01-18T02:35:58.858Z,31.21
2023-01-18T02:38:39.440Z,30.09
2023-01-18T02:41:13.442Z,29.17
2023-01-18T02:44:03.657Z,28.74
2023-01-18T02:46:38.014Z,28.74
2023-01-18T02:49:10.825Z,30.07
2023-01-18T02:51:41.957Z,30.42
2023-01-18T02:54:25.542Z,30.97
2023-01-18T02:56:57.199Z,29.35
2023-01-18T02:59:38.256Z,28.63
2023-01-18T03:02:15.814Z,30.20
2023-01-18T03:04:58.414Z,30.60
2023-01-18T03:07:37.390Z,29.68
2023-01-18T03:10:10.528Z,30.37
2023-01-18T03:13:02.686Z,30.22
2023-01-18T03:15:44.654Z,30.68
2023-01-18T03:18:28.107Z,30.39
2023-01-18T03:20:59.743Z,30.89
2023-01-18T03:23:43.830Z,30.83
2023-01-18T03:26:18.283Z,29.92
2023-01-18T03:29:17.505Z,29.87
2023-01-18T03:32:32.538Z,30.22
2023-01-18T03:35:15.795Z,29.81
2023-01-18T03:37:48.036Z,30.27
2023-01-18T03:40:26.118Z,30.67
2023-01-18T03:43:05.799Z,30.51
2023-01-18T03:45:41.583Z,30.72
2023-01-18T03:48:12.945Z,31.01
2023-01-18T03:50:54.474Z,30.59
2023-01-18T03:54:12.871Z,30.08
2023-01-18T03:56:51.136Z,30.21
2023-01-18T03:59:23.125Z,30.49
2023-01-18T04:01:54.757Z,30.81
2023-01-18T04:04:26.099Z,30.67
2023-01-18T04:06:56.539Z,30.42
2023-01-18T04:09:28.571Z,30.12
2023-01-18T04:12:00.257Z,30.30
2023-01-18T04:14:31.384Z,29.78
2023-01-18T04:17:01.961Z,30.43
2023-01-18T04:19:32.908Z,30.21
2023-01-18T04:22:03.866Z,30.65
2023-01-18T04:24:35.022Z,30.48
2023-01-18T04:27:09.055Z,30.71
2023-01-18T04:29:40.189Z,31.03
2023-01-18T04:32:11.295Z,30.56
2023-01-18T04:34:42.680Z,29.81
2023-01-18T04:37:13.741Z,30.12
2023-01-18T04:39:45.090Z,30.24
2023-01-18T04:42:15.995Z,30.41
2023-01-18T04:44:47.573Z,30.77
2023-01-18T04:47:18.930Z,29.61
2023-01-18T04:49:49.345Z,30.56
2023-01-18T04:52:20.455Z,29.91
2023-01-18T04:54:52.147Z,29.98
2023-01-18T04:57:23.056Z,30.10
2023-01-18T04:59:53.907Z,29.47
2023-01-18T05:02:24.759Z,29.37
2023-01-18T05:04:56.002Z,29.60
2023-01-18T05:07:27.866Z,30.00
2023-01-18T05:09:59.205Z,30.18
2023-01-18T05:12:31.399Z,30.46
2023-01-18T05:15:02.620Z,30.04
2023-01-18T05:17:36.144Z,30.55
2023-01-18T05:20:09.189Z,29.83
2023-01-18T05:22:40.261Z,29.90
2023-01-18T05:25:11.708Z,30.17
2023-01-18T05:27:42.908Z,30.59
2023-01-18T05:30:13.873Z,29.82
2023-01-18T05:32:45.139Z,30.02
2023-01-18T05:35:16.067Z,30.27
2023-01-18T05:37:46.827Z,29.73
2023-01-18T05:40:17.972Z,29.54
2023-01-18T05:42:48.918Z,29.51
2023-01-18T05:45:21.414Z,29.32
2023-01-18T05:47:52.464Z,29.36
2023-01-18T05:50:23.842Z,29.68
2023-01-18T05:52:54.954Z,28.88
2023-01-18T05:55:25.418Z,29.18
2023-01-18T05:57:56.340Z,28.95
2023-01-18T06:00:26.846Z,29.50
2023-01-18T06:02:58.092Z,29.13
2023-01-18T06:05:29.670Z,28.89
2023-01-18T06:08:01.019Z,28.29
2023-01-18T06:10:32.145Z,28.06
2023-01-18T06:13:03.490Z,28.36
2023-01-18T06:15:34.762Z,27.65
2023-01-18T06:18:05.874Z,27.81
2023-01-18T06:20:36.821Z,27.45
2023-01-18T06:23:07.837Z,27.21
2023-01-18T06:25:38.416Z,26.98
2023-01-18T06:28:09.470Z,27.19
2023-01-18T06:30:40.226Z,27.14
2023-01-18T06:33:12.098Z,26.52
2023-01-18T06:35:44.752Z,26.34
2023-01-18T06:38:16.127Z,26.60
2023-01-18T06:40:46.590Z,26.47
2023-01-18T06:43:18.290Z,26.37
2023-01-18T06:45:59.421Z,26.16
2023-01-18T06:48:31.245Z,26.07
2023-01-18T06:51:02.197Z,25.57
2023-01-18T06:53:33.111Z,25.73
2023-01-18T06:56:04.020Z,25.48
2023-01-18T06:58:35.989Z,25.37
2023-01-18T07:01:07.169Z,25.19
2023-01-18T07:03:38.045Z,25.10
2023-01-18T07:06:09.338Z,25.36
2023-01-18T07:08:41.643Z,25.26
2023-01-18T07:11:15.669Z,25.53
2023-01-18T07:13:47.714Z,25.15
2023-01-18T07:16:22.706Z,24.94
2023-01-18T07:18:53.635Z,25.13
2023-01-18T07:21:30.895Z,25.37
2023-01-18T07:24:02.110Z,25.23
2023-01-18T07:26:33.105Z,24.70
2023-01-18T07:29:03.720Z,24.86
2023-01-18T07:31:34.845Z,24.59
2023-01-18T07:34:06.054Z,24.54
2023-01-18T07:36:37.457Z,24.84
2023-01-18T07:39:08.947Z,24.71
2023-01-18T07:41:40.330Z,24.55
2023-01-18T07:44:13.173Z,24.54
2023-01-18T07:46:45.503Z,24.54
2023-01-18T07:49:17.078Z,24.35
2023-01-18T07:51:47.627Z,24.31
2023-01-18T07:54:20.525Z,24.09
2023-01-18T07:56:51.548Z,23.88
2023-01-18T07:59:22.456Z,23.55
2023-01-18T08:01:53.563Z,23.54
2023-01-18T08:04:24.542Z,23.64
2023-01-18T08:06:58.995Z,23.64
2023-01-18T08:09:29.915Z,23.66
2023-01-18T08:12:00.785Z,23.83
2023-01-18T08:14:31.698Z,23.73
2023-01-18T08:17:03.012Z,23.60
2023-01-18T08:19:34.145Z,23.20
2023-01-18T08:22:05.354Z,23.27
2023-01-18T08:24:36.349Z,23.29
2023-01-18T08:27:07.333Z,23.18
2023-01-18T08:29:38.409Z,23.46
2023-01-18T08:32:09.077Z,23.48
2023-01-18T08:34:40.729Z,23.57
2023-01-18T08:37:13.225Z,23.52
2023-01-18T08:39:44.101Z,23.43
2023-01-18T08:42:15.533Z,23.29
2023-01-18T08:44:46.712Z,23.29
2023-01-18T08:47:19.582Z,23.07
2023-01-18T08:49:50.560Z,22.99
2023-01-18T08:52:22.031Z,23.09
2023-01-18T08:54:53.867Z,22.97
2023-01-18T08:57:25.121Z,22.91
2023-01-18T08:59:58.750Z,23.07
2023-01-18T09:02:30.918Z,23.03
2023-01-18T09:05:02.366Z,22.81
2023-01-18T09:07:33.668Z,22.84
2023-01-18T09:10:04.602Z,22.75
2023-01-18T09:12:36.254Z,22.67
2023-01-18T09:15:07.802Z,22.54
2023-01-18T09:17:38.174Z,22.65
2023-01-18T09:20:11.144Z,22.57
2023-01-18T09:22:44.225Z,22.72
2023-01-18T09:25:15.686Z,22.83
2023-01-18T09:27:48.023Z,22.59
2023-01-18T09:30:20.191Z,22.52
2023-01-18T09:32:51.152Z,22.63
2023-01-18T09:35:22.224Z,22.67
2023-01-18T09:37:53.080Z,22.68
2023-01-18T09:40:27.025Z,22.48
2023-01-18T09:42:58.180Z,22.43
2023-01-18T09:45:35.317Z,22.35
2023-01-18T09:48:09.523Z,22.34
2023-01-18T09:50:45.663Z,22.25
2023-01-18T09:53:22.312Z,22.19
2023-01-18T09:56:03.946Z,22.22
2023-01-18T09:58:40.704Z,22.28
2023-01-18T10:01:24.262Z,21.94
2023-01-18T10:03:56.764Z,22.04
2023-01-18T10:06:46.496Z,22.06
2023-01-18T10:09:44.699Z,22.19
2023-01-18T10:12:43.235Z,21.93
2023-01-18T10:15:23.718Z,21.97
2023-01-18T10:17:58.018Z,21.75
2023-01-18T10:20:41.340Z,21.99
2023-01-18T10:23:34.345Z,21.86
2023-01-18T10:26:11.713Z,21.81
2023-01-18T10:29:27.923Z,21.81
2023-01-18T10:32:13.446Z,21.56
2023-01-18T10:34:48.108Z,21.33
2023-01-18T10:37:44.908Z,21.31
2023-01-18T10:40:16.775Z,21.19
2023-01-18T10:43:01.036Z,21.22
2023-01-18T10:45:35.917Z,21.24
2023-01-18T10:48:19.486Z,20.95
2023-01-18T10:50:53.511Z,20.95
2023-01-18T10:53:38.496Z,20.90
2023-01-18T10:56:14.495Z,20.91
2023-01-18T10:58:59.058Z,20.80
2023-01-18T11:01:36.121Z,20.95
2023-01-18T11:04:17.521Z,20.79
2023-01-18T11:06:52.969Z,20.78
2023-01-18T11:09:43.704Z,20.76
2023-01-18T11:12:47.037Z,20.63
2023-01-18T11:15:17.902Z,20.61
2023-01-18T11:18:02.615Z,20.46
2023-01-18T11:20:39.267Z,20.42
2023-01-18T11:23:16.337Z,20.42
2023-01-18T11:25:58.563Z,20.06
2023-01-18T11:28:33.093Z,20.40
2023-01-18T11:31:20.490Z,20.37
2023-01-18T11:34:00.478Z,20.03
2023-01-18T11:36:44.369Z,20.06
2023-01-18T11:39:28.600Z,19.93
2023-01-18T11:42:28.774Z,19.90
2023-01-18T11:45:17.577Z,19.98
2023-01-18T11:48:03.387Z,19.81
2023-01-18T11:50:38.024Z,19.65
2023-01-18T11:53:21.260Z,19.85
2023-01-18T11:56:06.326Z,19.67
2023-01-18T11:58:38.246Z,19.54
2023-01-18T12:01:30.906Z,19.60
2023-01-18T12:04:05.293Z,19.42
2023-01-18T12:07:07.875Z,19.45
2023-01-18T12:09:48.091Z,19.28
2023-01-18T12:12:34.687Z,19.41
2023-01-18T12:15:06.173Z,19.42
2023-01-18T12:18:12.862Z,19.27
2023-01-18T12:20:59.352Z,19.32
2023-01-18T12:23:40.448Z,19.11
2023-01-18T12:26:22.888Z,19.16
2023-01-18T12:29:11.428Z,19.26
2023-01-18T12:32:00.555Z,19.23
2023-01-18T12:35:12.638Z,19.14
2023-01-18T12:38:26.148Z,19.09
2023-01-18T12:41:24.476Z,19.10
2023-01-18T12:44:13.683Z,19.16
2023-01-18T12:46:56.640Z,18.99
2023-01-18T12:49:29.359Z,19.22
2023-01-18T12:52:18.089Z,19.09
2023-01-18T12:55:01.612Z,19.08
2023-01-18T12:57:32.950Z,19.05
2023-01-18T13:00:15.720Z,18.94
2023-01-18T13:02:50.617Z,19.00
2023-01-18T13:05:36.286Z,18.79
2023-01-18T13:08:38.272Z,18.99
2023-01-18T13:11:20.837Z,18.87
2023-01-18T13:14:04.412Z,18.79
2023-01-18T13:16:51.248Z,18.77
2023-01-18T13:19:27.206Z,18.52
2023-01-18T13:22:21.972Z,18.73
2023-01-18T13:25:24.966Z,18.75
2023-01-18T13:28:06.909Z,18.73
2023-01-18T13:30:46.460Z,18.74
2023-01-18T13:33:18.481Z,18.75
2023-01-18T13:36:04.549Z,18.53
2023-01-18T13:38:42.165Z,18.53
2023-01-18T13:41:14.773Z,18.38
2023-01-18T13:43:45.839Z,18.55
2023-01-18T13:46:27.513Z,18.49
2023-01-18T13:49:03.110Z,18.57
2023-01-18T13:51:46.311Z,18.53
2023-01-18T13:54:41.705Z,18.75
2023-01-18T13:57:17.577Z,18.77
2023-01-18T13:59:53.347Z,18.73
2023-01-18T14:02:35.475Z,18.83
2023-01-18T14:05:28.346Z,18.86
2023-01-18T14:08:02.167Z,18.76
2023-01-18T14:10:35.691Z,18.85
2023-01-18T14:13:08.815Z,18.88
2023-01-18T14:15:46.503Z,18.65
2023-01-18T14:18:29.267Z,18.56
2023-01-18T14:21:27.383Z,18.83
2023-01-18T14:24:12.023Z,18.93
2023-01-18T14:26:44.386Z,18.79
2023-01-18T14:29:15.682Z,18.72
2023-01-18T14:31:51.423Z,18.68
2023-01-18T14:34:34.274Z,18.80
2023-01-18T14:37:05.838Z,18.85
2023-01-18T14:39:36.289Z,19.03
2023-01-18T14:42:07.683Z,18.79
2023-01-18T14:44:58.384Z,18.97
2023-01-18T14:47:35.202Z,19.00
2023-01-18T14:50:07.035Z,18.81
2023-01-18T14:52:38.764Z,18.93
2023-01-18T14:55:27.591Z,19.01
2023-01-18T14:58:20.483Z,19.18
2023-01-18T15:00:55.224Z,19.18
2023-01-18T15:03:31.518Z,19.11
2023-01-18T15:06:41.869Z,19.11
2023-01-18T15:09:14.111Z,19.18
2023-01-18T15:11:46.850Z,19.34
2023-01-18T15:14:36.723Z,19.23
2023-01-18T15:17:24.678Z,19.15
2023-01-18T15:20:01.130Z,19.06
2023-01-18T15:22:37.407Z,19.08
2023-01-18T15:25:17.712Z,19.10
2023-01-18T15:27:53.684Z,19.20
2023-01-18T15:30:26.039Z,19.22
2023-01-18T15:32:58.803Z,19.07
2023-01-18T15:38:08.041Z,19.08
2023-01-18T15:40:39.509Z,19.28
2023-01-18T15:43:19.289Z,19.22
2023-01-18T15:45:51.540Z,19.22
2023-01-18T15:48:23.374Z,19.16
2023-01-18T15:50:54.576Z,19.11
2023-01-18T15:53:28.383Z,18.94
2023-01-18T15:56:08.525Z,19.01
2023-01-18T15:58:45.054Z,18.96
2023-01-18T16:01:19.143Z,18.89
2023-01-18T16:03:50.197Z,19.02
2023-01-18T16:06:24.420Z,19.05
2023-01-18T16:09:22.553Z,18.95
2023-01-18T16:11:55.799Z,18.72
2023-01-18T16:14:34.134Z,18.87
2023-01-18T16:17:05.042Z,18.81
2023-01-18T16:19:36.416Z,18.94
2023-01-18T16:22:09.772Z,18.95
2023-01-18T16:25:09.953Z,18.93
2023-01-18T16:27:52.788Z,18.85
2023-01-18T16:30:29.975Z,18.80
2023-01-18T16:33:14.368Z,18.87
2023-01-18T16:35:45.772Z,18.70
2023-01-18T16:38:18.514Z,18.75
2023-01-18T16:40:51.292Z,18.88
2023-01-18T16:43:26.090Z,18.72
2023-01-18T16:46:00.260Z,18.69
2023-01-18T16:48:32.497Z,18.74
2023-01-18T16:51:03.859Z,18.74
2023-01-18T16:53:35.229Z,18.73
2023-01-18T16:56:07.479Z,18.77
2023-01-18T16:58:38.479Z,18.66
2023-01-18T17:01:15.338Z,18.56
2023-01-18T17:03:46.637Z,18.54
2023-01-18T17:06:23.474Z,18.76
2023-01-18T17:08:54.548Z,18.73
2023-01-18T17:11:25.637Z,18.67
2023-01-18T17:13:56.835Z,18.70
2023-01-18T17:16:28.219Z,18.61
2023-01-18T17:18:59.116Z,18.59
2023-01-18T17:21:30.079Z,18.74
2023-01-18T17:24:01.263Z,18.75
2023-01-18T17:26:32.239Z,18.56
2023-01-18T17:29:03.543Z,18.73
2023-01-18T17:31:35.363Z,18.70
2023-01-18T17:34:08.697Z,18.77
2023-01-18T17:36:39.224Z,18.74
2023-01-18T17:39:10.086Z,18.65
2023-01-18T17:41:42.244Z,18.59
2023-01-18T17:44:13.581Z,18.74
2023-01-18T17:46:44.474Z,18.85
2023-01-18T17:49:15.313Z,18.87
2023-01-18T17:51:46.444Z,18.90
2023-01-18T17:54:20.991Z,18.95
2023-01-18T17:56:52.708Z,18.89
2023-01-18T17:59:23.771Z,19.00
2023-01-18T18:01:55.238Z,19.01
2023-01-18T18:04:26.330Z,19.00
2023-01-18T18:06:59.938Z,18.91
2023-01-18T18:09:31.332Z,18.83
2023-01-18T18:12:02.333Z,18.96
2023-01-18T18:14:35.701Z,19.03
2023-01-18T18:17:08.480Z,19.03
2023-01-18T18:19:39.673Z,18.92
2023-01-18T18:22:10.713Z,18.96
2023-01-18T18:24:41.889Z,19.00
2023-01-18T18:27:13.422Z,18.97
2023-01-18T18:29:44.243Z,19.08
2023-01-18T18:32:15.972Z,19.12
2023-01-18T18:34:47.074Z,18.93
2023-01-18T18:37:19.383Z,19.00
2023-01-18T18:39:50.500Z,19.03
2023-01-18T18:42:21.700Z,19.02
2023-01-18T18:44:53.099Z,19.27
2023-01-18T18:47:24.305Z,19.42
2023-01-18T18:49:55.618Z,19.39
2023-01-18T18:52:26.779Z,19.43
2023-01-18T18:54:58.301Z,19.50
2023-01-18T18:57:30.850Z,19.59
2023-01-18T19:00:01.934Z,19.53
2023-01-18T19:02:34.490Z,19.58
2023-01-18T19:05:08.258Z,19.72
2023-01-18T19:07:39.555Z,19.82
2023-01-18T19:10:12.195Z,20.04
2023-01-18T19:12:43.009Z,20.32
2023-01-18T19:15:14.246Z,20.26
2023-01-18T19:17:45.728Z,20.26
2023-01-18T19:20:19.122Z,20.39
2023-01-18T19:22:50.942Z,20.93
2023-01-18T19:25:21.444Z,21.17
2023-01-18T19:27:52.749Z,21.57
2023-01-18T19:30:23.972Z,21.54
2023-01-18T19:32:55.516Z,22.03
2023-01-18T19:35:28.367Z,22.23
2023-01-18T19:38:02.223Z,22.95
2023-01-18T19:40:33.657Z,23.01
2023-01-18T19:43:05.001Z,23.13
2023-01-18T19:45:37.565Z,22.99
2023-01-18T19:48:09.063Z,23.49
2023-01-18T19:50:39.540Z,23.62
2023-01-18T19:53:10.841Z,23.85
2023-01-18T19:55:42.001Z,23.90
2023-01-18T19:58:12.707Z,23.82
2023-01-18T20:00:43.982Z,23.72
2023-01-18T20:03:15.615Z,24.32
2023-01-18T20:05:47.614Z,23.92
2023-01-18T20:08:18.542Z,23.98
2023-01-18T20:10:50.489Z,23.83
2023-01-18T20:13:21.957Z,24.06
2023-01-18T20:15:55.503Z,24.21
2023-01-18T20:18:27.024Z,24.01
2023-01-18T20:20:58.476Z,24.15
2023-01-18T20:23:28.896Z,24.28
2023-01-18T20:25:59.819Z,24.31
2023-01-18T20:28:30.875Z,24.91
2023-01-18T20:31:04.356Z,24.60
2023-01-18T20:33:36.771Z,25.48
2023-01-18T20:36:12.410Z,25.70
2023-01-18T20:38:43.801Z,26.31
2023-01-18T20:41:14.292Z,25.85
2023-01-18T20:43:45.304Z,26.72
2023-01-18T20:46:16.572Z,27.45
2023-01-18T20:48:47.479Z,27.71
2023-01-18T20:51:19.330Z,27.50
2023-01-18T20:53:51.035Z,27.59
2023-01-18T20:56:30.119Z,27.11
2023-01-18T20:59:02.308Z,28.32
2023-01-18T21:01:33.964Z,28.02
2023-01-18T21:04:07.747Z,28.08
2023-01-18T21:06:39.050Z,28.17
2023-01-18T21:09:09.516Z,28.45
2023-01-18T21:11:40.993Z,28.47
2023-01-18T21:14:12.148Z,27.76
2023-01-18T21:16:43.012Z,28.53
2023-01-18T21:19:14.185Z,28.06
2023-01-18T21:21:44.643Z,27.93
2023-01-18T21:24:15.790Z,28.83
2023-01-18T21:26:46.587Z,28.76
2023-01-18T21:29:17.460Z,28.85
2023-01-18T21:31:48.424Z,28.85
2023-01-18T21:34:19.391Z,28.93
2023-01-18T21:36:51.635Z,28.89
2023-01-18T21:39:26.596Z,29.26
2023-01-18T21:42:15.488Z,29.54
2023-01-18T21:45:04.393Z,29.54
2023-01-18T21:47:35.373Z,28.65
2023-01-18T21:50:24.827Z,28.29
2023-01-18T21:53:14.402Z,29.29
2023-01-18T21:55:45.485Z,29.81
2023-01-18T21:58:35.082Z,30.38
2023-01-18T22:01:18.575Z,29.24
2023-01-18T22:04:07.961Z,29.69
2023-01-18T22:06:39.130Z,30.23
2023-01-18T22:09:09.985Z,30.37
2023-01-18T22:11:41.360Z,30.13
2023-01-18T22:14:13.013Z,30.60
2023-01-18T22:16:44.524Z,30.55
2023-01-18T22:19:16.554Z,30.32
2023-01-18T22:21:48.718Z,30.58
2023-01-18T22:24:20.280Z,30.45
2023-01-18T22:26:51.336Z,30.73
2023-01-18T22:29:23.137Z,29.94
2023-01-18T22:31:54.619Z,29.77
2023-01-18T22:34:26.005Z,30.46
2023-01-18T22:36:57.439Z,30.40
2023-01-18T22:39:28.755Z,31.06
2023-01-18T22:41:59.353Z,30.92
2023-01-18T22:44:30.391Z,30.46
2023-01-18T22:47:01.383Z,30.84
2023-01-18T22:49:32.590Z,29.72
2023-01-18T22:52:03.735Z,30.24
2023-01-18T22:54:35.165Z,30.42
2023-01-18T22:57:05.714Z,30.60
2023-01-18T22:59:36.910Z,30.96
2023-01-18T23:02:08.640Z,30.85
2023-01-18T23:04:39.721Z,30.88
2023-01-18T23:07:10.178Z,30.42
2023-01-18T23:09:41.743Z,31.11
2023-01-18T23:12:12.801Z,31.03
2023-01-18T23:15:02.536Z,31.20
2023-01-18T23:17:44.455Z,30.35
2023-01-18T23:20:16.329Z,31.35
2023-01-18T23:22:47.348Z,31.66
2023-01-18T23:25:18.731Z,31.01
2023-01-18T23:27:49.646Z,31.15
2023-01-18T23:30:21.798Z,31.77
2023-01-18T23:32:52.927Z,31.40
2023-01-18T23:35:24.063Z,31.70
2023-01-18T23:37:55.820Z,32.14
2023-01-18T23:40:45.243Z,32.29
2023-01-18T23:43:34.117Z,32.16
2023-01-18T23:46:23.238Z,32.57
2023-01-18T23:49:12.519Z,32.05
2023-01-18T23:52:01.796Z,32.11
2023-01-18T23:54:33.009Z,31.86
2023-01-18T23:57:04.367Z,31.86
2023-01-18T23:59:36.192Z,33.27
